الصفحة الرئيسية
METAR-TAF:

METAR-TAF

مطار :

كيفالونيا, اليونان

دائرة عرض: 38-07N, خط طول: 020-30E, ارتفاع: 19 متر

مراقبة الطقس الحالي

تاريخ ووقت الإصدار 11ساعات و 36 دقيقة قبل الساعة 17:50UTC
ريح 12 عقدة من الشرق/الجنوب الشرقي
درجة الحرارة 17°درجة مئوية
الرطوبة 82%
ضغط 1014 hPa
الرؤية 10 كم أو أكثر
غيوم قليلة على ارتفاع 2000 قدم

METAR: LGKF 281750Z 12012KT 9999 FEW020 17/14 Q1014

زمن: 07:26 (05:26 UTC)

توقعات

تاريخ ووقت الإصدار 3ساعات و 26 دقيقة قبل الساعة 02:00UTC
التوقعات صالحة من29 الساعة 03 UTC إلى 29 الساعة 12 UTC
ريح 12 عقدة من الشرق/الجنوب الشرقي
الرؤية 10 كم أو أكثر
غيوم قليلة على ارتفاع 2000 قدم
مؤقت
من 29 الساعة 03 UTC إلى 29 الساعة 12 UTC
ريح 15 عقدة من الشرق/الجنوب الشرقي تتزايد حتى 30 عقدة
أصبح
من 29 الساعة 09 UTC إلى 29 الساعة 11 UTC
غيوم قليلة على ارتفاع 2000 قدم
غيوم مفككة على ارتفاع 8000 قدم

TAF: LGKF 290200Z 2903/2912 11012KT 9999 FEW020 TEMPO 2903/2912 12015G30KT BECMG 2909/2911 FEW020 BKN080

أرصاد الطقس والتوقعات من أكثر من 4000 مطار (تقارير الطقس للمطار METAR والتنبؤ بالطقس بالمطارTAF).

المحطات المتاحة هي النقط الصفراء والحمراء على الخريطة.

حرك المؤشر فوق النقطة لمعرفة اسم المحطة.

ثم انقر لمعرفة أرصاد وتوقعات الطقس.

لتغيير الخارطة: اضغط على الأزرار الخضراء مع رمز الصليب الأسود للتكبير. على الزر الأخضر مع شرطة للتصغير، أو على الأسهم الخضراء للخرائط المجاورة.


METAR-TAF: